Time;durP1;ratioP1;P1;durP2;ratioP2;P2;SDS_P1;SDS_P2;PMS_P1;PMS_P2;Temp;Humidity;BMP_temperature;BMP_pressure;BME280_temperature;BME280_humidity;BME280_pressure;Samples;Min_cycle;Max_cycle;Signal;HPM_P1;HPM_P2
2021/07/13 00:00:40;;;;;;;4.50;4.20;;;24.60;98.60;;;;;;5052166;28;20350;-75
2021/07/13 00:03:07;;;;;;;4.70;4.38;;;24.60;98.50;;;;;;5058325;28;20020;-75
2021/07/13 00:05:35;;;;;;;4.07;3.78;;;24.60;98.20;;;;;;5072556;28;20025;-75
2021/07/13 00:08:01;;;;;;;3.90;3.60;;;24.60;97.90;;;;;;5059340;28;20025;-75
2021/07/13 00:10:30;;;;;;;4.00;3.70;;;24.70;97.30;;;;;;5034109;28;20031;-75
2021/07/13 00:12:57;;;;;;;3.60;3.30;;;24.70;96.80;;;;;;5051869;28;20475;-75
2021/07/13 00:15:32;;;;;;;4.90;3.72;;;24.80;96.10;;;;;;5052409;28;20338;-75
2021/07/13 00:17:59;;;;;;;3.53;3.30;;;24.80;95.50;;;;;;5052214;28;20549;-75
2021/07/13 00:20:25;;;;;;;3.88;3.47;;;24.90;95.40;;;;;;5049077;28;20369;-75
2021/07/13 00:22:52;;;;;;;7.55;3.58;;;24.90;95.30;;;;;;5072612;28;20388;-74
2021/07/13 00:25:19;;;;;;;3.47;3.25;;;24.90;95.10;;;;;;5072474;28;20028;-75
2021/07/13 00:27:46;;;;;;;4.00;3.70;;;24.80;95.60;;;;;;5072415;28;20025;-75
2021/07/13 00:30:14;;;;;;;3.55;3.35;;;24.80;96.10;;;;;;5054134;28;20035;-75
2021/07/13 00:32:40;;;;;;;3.55;3.28;;;24.70;95.90;;;;;;5072478;28;20040;-75
2021/07/13 00:35:07;;;;;;;3.42;3.22;;;24.70;95.90;;;;;;5054442;28;20020;-75
2021/07/13 00:37:32;;;;;;;3.40;3.10;;;24.60;95.40;;;;;;5072511;28;20032;-75
2021/07/13 00:39:59;;;;;;;3.55;3.25;;;24.60;95.30;;;;;;5071813;28;20411;-75
2021/07/13 00:42:44;;;;;;;3.10;2.90;;;24.60;95.20;;;;;;5067342;28;20349;-75
2021/07/13 00:50:23;;;;;;;3.15;2.83;;;24.50;94.90;;;;;;1470998;26;20077;-76
2021/07/13 00:52:50;;;;;;;2.90;2.80;;;24.50;94.60;;;;;;5012970;28;20105;-76
2021/07/13 00:55:16;;;;;;;3.35;3.08;;;24.50;94.40;;;;;;5013128;28;20022;-77
2021/07/13 00:57:43;;;;;;;4.07;2.88;;;24.50;94.20;;;;;;5012971;28;20022;-76
2021/07/13 01:00:18;;;;;;;2.85;2.65;;;24.50;94.30;;;;;;5012742;28;20358;-76
2021/07/13 01:02:48;;;;;;;2.67;2.53;;;24.40;94.40;;;;;;5012563;28;20037;-76
2021/07/13 01:05:26;;;;;;;3.08;2.55;;;24.40;94.10;;;;;;4995005;28;20022;-76
2021/07/13 01:08:27;;;;;;;2.90;2.70;;;24.40;94.10;;;;;;5012431;28;20426;-76
2021/07/13 01:11:08;;;;;;;4.00;2.60;;;24.40;93.90;;;;;;5012228;28;20022;-76
2021/07/13 01:14:00;;;;;;;2.83;2.72;;;24.40;93.60;;;;;;5012257;28;20049;-76
2021/07/13 01:16:57;;;;;;;2.83;2.63;;;24.40;93.00;;;;;;4994702;28;20080;-76
2021/07/13 01:19:34;;;;;;;7.35;2.97;;;24.40;92.70;;;;;;5012337;28;20026;-76
2021/07/13 01:22:01;;;;;;;4.07;2.70;;;24.40;92.80;;;;;;5012320;28;20120;-76
2021/07/13 01:24:47;;;;;;;2.97;2.75;;;24.40;92.90;;;;;;4996502;28;20246;-76
2021/07/13 01:27:36;;;;;;;2.33;2.22;;;24.40;92.40;;;;;;4996539;28;20018;-76
2021/07/13 01:30:12;;;;;;;3.20;2.30;;;24.40;91.60;;;;;;4995929;28;20030;-76
2021/07/13 01:32:40;;;;;;;2.60;2.50;;;24.50;91.40;;;;;;4978362;28;20266;-76
2021/07/13 01:35:09;;;;;;;3.13;2.30;;;24.50;90.70;;;;;;4995879;28;20030;-76
2021/07/13 01:37:38;;;;;;;3.60;2.83;;;24.60;90.80;;;;;;4995968;28;20041;-76
2021/07/13 01:40:08;;;;;;;3.67;2.30;;;24.60;90.30;;;;;;5002143;28;20037;-76
2021/07/13 01:42:38;;;;;;;2.28;2.08;;;24.60;90.30;;;;;;4997647;28;20033;-76
2021/07/13 01:45:06;;;;;;;2.50;2.30;;;24.60;90.00;;;;;;5015185;28;20370;-76
2021/07/13 01:47:36;;;;;;;2.53;2.33;;;24.60;90.40;;;;;;5015159;28;20026;-76
2021/07/13 01:50:03;;;;;;;1.98;1.88;;;24.60;89.50;;;;;;5014767;28;20485;-76
2021/07/13 01:52:30;;;;;;;5.28;1.80;;;24.60;88.40;;;;;;5015208;28;20053;-76
2021/07/13 01:54:56;;;;;;;2.40;2.20;;;24.70;88.60;;;;;;4998001;28;20051;-76
2021/07/13 01:57:27;;;;;;;2.08;1.90;;;24.60;90.10;;;;;;5015577;28;20057;-76
2021/07/13 01:59:53;;;;;;;2.25;2.15;;;24.50;89.80;;;;;;5015000;28;20038;-76
2021/07/13 02:02:20;;;;;;;2.45;2.33;;;24.50;89.80;;;;;;5015354;28;20104;-76
2021/07/13 02:04:48;;;;;;;3.33;2.42;;;24.50;89.40;;;;;;5015108;28;20500;-76
2021/07/13 02:07:14;;;;;;;2.03;1.92;;;24.50;89.10;;;;;;5015137;28;20478;-76
2021/07/13 02:09:43;;;;;;;2.40;2.10;;;24.50;89.40;;;;;;5015063;28;20029;-76
2021/07/13 02:12:09;;;;;;;6.88;2.40;;;24.50;88.40;;;;;;4997301;28;20034;-76
2021/07/13 02:14:35;;;;;;;2.03;1.92;;;24.50;88.30;;;;;;5014938;28;20088;-76
2021/07/13 02:17:03;;;;;;;2.10;2.00;;;24.50;89.00;;;;;;5015121;28;20030;-76
2021/07/13 02:19:28;;;;;;;2.35;2.15;;;24.50;89.20;;;;;;5014937;28;20030;-76
2021/07/13 02:21:56;;;;;;;2.55;2.35;;;24.50;88.90;;;;;;5015016;28;20029;-76
2021/07/13 02:24:21;;;;;;;2.05;1.95;;;24.50;88.30;;;;;;5014968;28;20033;-76
2021/07/13 02:26:54;;;;;;;2.75;2.55;;;24.50;87.80;;;;;;4997234;28;20022;-77
2021/07/13 02:29:27;;;;;;;2.10;2.00;;;24.50;88.10;;;;;;5014779;28;20033;-76
2021/07/13 02:32:00;;;;;;;2.03;1.92;;;24.50;88.10;;;;;;5014854;28;20104;-76
2021/07/13 02:34:29;;;;;;;2.30;2.03;;;24.50;87.70;;;;;;5014266;28;20037;-76
2021/07/13 02:36:59;;;;;;;2.10;2.00;;;24.60;87.40;;;;;;5014787;28;20030;-76
2021/07/13 02:39:26;;;;;;;2.40;2.30;;;24.60;87.20;;;;;;5014288;28;20026;-77
2021/07/13 02:41:53;;;;;;;2.20;2.10;;;24.60;87.20;;;;;;5014636;28;20381;-77
2021/07/13 02:44:20;;;;;;;2.08;1.98;;;24.60;86.00;;;;;;5014243;28;20024;-76
2021/07/13 02:46:46;;;;;;;3.28;2.25;;;24.70;86.00;;;;;;5014189;28;20492;-76
2021/07/13 02:49:20;;;;;;;2.30;2.20;;;24.70;86.20;;;;;;5014532;28;20029;-76
2021/07/13 02:51:47;;;;;;;2.42;2.25;;;24.80;86.10;;;;;;5013981;28;20050;-76
2021/07/13 02:54:16;;;;;;;2.17;2.08;;;24.80;86.30;;;;;;5014475;28;20030;-76
2021/07/13 02:56:43;;;;;;;4.13;2.42;;;24.80;86.70;;;;;;5014321;28;20432;-76
2021/07/13 02:59:10;;;;;;;3.33;1.80;;;24.80;86.80;;;;;;5014218;28;20384;-76
2021/07/13 03:01:37;;;;;;;2.53;1.80;;;24.80;85.20;;;;;;5013896;28;20025;-76
2021/07/13 03:04:05;;;;;;;2.03;1.90;;;24.80;85.00;;;;;;5014175;28;20091;-76
2021/07/13 03:06:32;;;;;;;2.25;2.00;;;24.90;85.10;;;;;;5014004;28;20571;-76
2021/07/13 03:08:58;;;;;;;2.42;2.30;;;24.80;86.20;;;;;;4996392;28;20445;-76
2021/07/13 03:11:24;;;;;;;3.78;2.30;;;24.80;87.40;;;;;;5013896;28;20104;-76
2021/07/13 03:13:50;;;;;;;2.13;2.03;;;24.80;87.70;;;;;;4996390;28;20096;-76
2021/07/13 03:16:16;;;;;;;4.93;2.28;;;24.80;87.40;;;;;;5014044;28;20030;-76
2021/07/13 03:18:42;;;;;;;2.00;1.90;;;24.80;87.80;;;;;;5013843;28;20026;-76
2021/07/13 03:21:10;;;;;;;2.17;2.08;;;24.70;87.60;;;;;;5013816;28;20030;-76
2021/07/13 03:23:39;;;;;;;2.13;2.03;;;24.70;87.30;;;;;;5013783;28;20024;-76
2021/07/13 03:26:07;;;;;;;2.20;2.10;;;24.70;87.60;;;;;;5013839;28;20026;-77
2021/07/13 03:28:34;;;;;;;2.17;2.08;;;24.70;86.20;;;;;;5013977;28;20053;-76
2021/07/13 03:31:01;;;;;;;2.22;2.10;;;24.70;86.60;;;;;;5013604;28;20422;-76
2021/07/13 03:33:27;;;;;;;2.13;2.03;;;24.60;86.00;;;;;;5013405;28;20092;-76
2021/07/13 03:35:57;;;;;;;2.15;2.05;;;24.70;86.50;;;;;;5013791;28;20060;-76
2021/07/13 03:38:23;;;;;;;3.17;2.15;;;24.70;86.10;;;;;;5013292;28;20512;-76
2021/07/13 03:40:50;;;;;;;2.30;2.20;;;24.80;86.90;;;;;;5013343;28;20022;-76
2021/07/13 03:43:17;;;;;;;3.83;2.28;;;24.70;86.50;;;;;;5013607;28;20491;-76
2021/07/13 03:45:42;;;;;;;2.15;2.03;;;24.60;86.80;;;;;;5013147;28;20018;-76
2021/07/13 03:48:11;;;;;;;3.28;2.10;;;24.60;86.80;;;;;;5012481;28;20389;-76
2021/07/13 03:50:38;;;;;;;2.50;2.30;;;24.60;86.70;;;;;;4998575;28;20042;-76
2021/07/13 03:53:04;;;;;;;2.25;2.00;;;24.60;86.30;;;;;;4995088;28;20022;-76
2021/07/13 03:55:31;;;;;;;3.60;1.85;;;24.60;86.60;;;;;;4995565;28;20560;-76
2021/07/13 03:57:56;;;;;;;2.65;1.70;;;24.60;85.70;;;;;;5013162;28;20034;-76
2021/07/13 04:00:24;;;;;;;2.28;2.15;;;24.70;85.10;;;;;;5013029;28;20076;-76
2021/07/13 04:02:50;;;;;;;2.92;2.33;;;24.80;84.70;;;;;;5012984;28;20022;-76
2021/07/13 04:05:16;;;;;;;2.17;2.08;;;24.80;85.20;;;;;;5012855;28;20018;-76
2021/07/13 04:07:42;;;;;;;2.15;2.05;;;24.80;85.20;;;;;;4995369;28;20431;-76
2021/07/13 04:10:12;;;;;;;2.00;1.90;;;24.80;86.10;;;;;;5012466;28;20064;-76
2021/07/13 04:15:23;;;;;;;2.10;2.00;;;24.80;84.80;;;;;;5013053;28;20044;-76
2021/07/13 04:17:49;;;;;;;5.22;2.10;;;24.80;84.00;;;;;;5013205;28;20018;-76
2021/07/13 04:20:15;;;;;;;1.92;1.83;;;24.90;84.30;;;;;;4995403;28;20033;-76
2021/07/13 04:22:43;;;;;;;2.08;1.98;;;25.00;81.60;;;;;;5012896;28;20050;-76
2021/07/13 04:25:10;;;;;;;2.42;2.10;;;25.00;83.50;;;;;;5013018;28;20033;-76
2021/07/13 04:27:36;;;;;;;1.98;1.83;;;25.00;82.20;;;;;;5012959;28;20022;-75
2021/07/13 04:30:06;;;;;;;2.58;1.85;;;25.10;81.90;;;;;;5014557;28;20503;-75
2021/07/13 04:33:18;;;;;;;2.38;2.17;;;25.10;82.20;;;;;;5014694;28;20076;-76
2021/07/13 04:35:43;;;;;;;2.85;2.22;;;25.20;81.90;;;;;;4995713;28;20038;-74
2021/07/13 04:38:09;;;;;;;1.98;1.88;;;25.20;81.20;;;;;;5012477;28;20034;-75
2021/07/13 04:40:35;;;;;;;2.10;1.90;;;25.30;81.50;;;;;;4995033;28;20377;-74
2021/07/13 04:43:01;;;;;;;2.92;2.25;;;25.20;82.70;;;;;;5013091;28;20381;-74
2021/07/13 04:45:26;;;;;;;1.98;1.88;;;25.20;82.60;;;;;;5012870;28;20084;-75
2021/07/13 04:47:52;;;;;;;3.47;1.92;;;25.20;82.00;;;;;;4995245;28;20026;-75
2021/07/13 04:50:18;;;;;;;2.00;1.90;;;25.20;82.10;;;;;;5012026;28;20624;-74
2021/07/13 04:52:44;;;;;;;1.98;1.88;;;25.20;82.80;;;;;;5012166;28;20018;-75
2021/07/13 04:55:10;;;;;;;2.40;2.00;;;25.20;82.20;;;;;;5011682;28;20040;-75
2021/07/13 04:57:35;;;;;;;2.05;1.80;;;25.10;83.80;;;;;;5012163;28;20026;-74
2021/07/13 05:00:01;;;;;;;2.92;1.85;;;25.20;82.90;;;;;;5015004;28;20033;-74
2021/07/13 05:02:27;;;;;;;2.20;2.10;;;25.20;84.60;;;;;;5015223;28;20032;-75
2021/07/13 05:04:52;;;;;;;1.90;1.77;;;25.20;83.20;;;;;;5015072;28;20034;-75
2021/07/13 05:07:18;;;;;;;2.50;1.95;;;25.20;83.10;;;;;;5015784;28;20558;-75
2021/07/13 05:09:44;;;;;;;1.90;1.80;;;25.20;83.70;;;;;;4997757;28;20052;-74
2021/07/13 05:12:10;;;;;;;3.38;2.60;;;25.30;83.70;;;;;;5015524;28;20021;-74
2021/07/13 05:14:35;;;;;;;1.83;1.73;;;25.30;83.40;;;;;;5015795;28;20036;-75
2021/07/13 05:17:03;;;;;;;2.42;2.25;;;25.30;84.30;;;;;;5015527;28;20026;-76
2021/07/13 05:19:32;;;;;;;1.88;1.77;;;25.30;83.90;;;;;;5015638;28;20034;-75
2021/07/13 05:22:01;;;;;;;5.57;2.00;;;25.30;84.70;;;;;;4997922;28;20123;-75
2021/07/13 05:24:27;;;;;;;1.90;1.80;;;25.40;84.00;;;;;;4997846;28;20547;-75
2021/07/13 05:26:54;;;;;;;2.10;1.90;;;25.40;84.20;;;;;;5015637;28;20101;-75
2021/07/13 05:29:20;;;;;;;2.15;2.05;;;25.40;84.60;;;;;;4997678;28;20085;-75
2021/07/13 05:31:46;;;;;;;2.08;1.98;;;25.40;83.10;;;;;;5015341;28;20069;-75
2021/07/13 05:34:12;;;;;;;2.25;2.05;;;25.50;84.00;;;;;;4997990;28;20017;-75
2021/07/13 05:36:38;;;;;;;2.25;2.10;;;25.50;84.90;;;;;;5015518;28;20136;-75
2021/07/13 05:39:06;;;;;;;1.80;1.70;;;25.50;83.50;;;;;;4997625;28;20026;-74
2021/07/13 05:41:32;;;;;;;2.30;2.20;;;25.60;83.80;;;;;;5015466;28;20022;-75
2021/07/13 05:43:59;;;;;;;2.75;2.33;;;25.60;85.30;;;;;;5015447;28;20022;-75
2021/07/13 05:46:25;;;;;;;2.35;2.15;;;25.60;84.80;;;;;;5015397;28;20019;-75
2021/07/13 05:48:51;;;;;;;2.75;2.00;;;25.70;83.00;;;;;;5015142;28;20030;-75
2021/07/13 05:51:16;;;;;;;2.08;1.88;;;25.80;83.10;;;;;;5014830;28;20095;-74
2021/07/13 05:53:42;;;;;;;3.72;2.20;;;25.80;82.70;;;;;;5015308;28;20049;-75
2021/07/13 05:56:10;;;;;;;2.33;2.13;;;25.80;82.70;;;;;;5015308;28;20088;-75
2021/07/13 05:58:36;;;;;;;2.40;2.00;;;25.80;83.80;;;;;;5015095;28;20029;-75
2021/07/13 06:01:02;;;;;;;2.30;2.10;;;25.90;83.00;;;;;;5014864;28;20139;-75
2021/07/13 06:03:28;;;;;;;2.47;2.25;;;26.00;82.30;;;;;;5014495;28;20030;-75
2021/07/13 06:05:53;;;;;;;2.17;2.08;;;26.00;82.50;;;;;;4997242;28;20109;-75
2021/07/13 06:08:19;;;;;;;2.20;2.10;;;26.00;83.30;;;;;;5014772;28;20036;-75
2021/07/13 06:10:45;;;;;;;1.90;1.80;;;26.00;82.30;;;;;;5014077;28;20508;-75
2021/07/13 06:13:11;;;;;;;2.28;2.08;;;26.00;81.90;;;;;;5014767;28;20030;-75
2021/07/13 06:15:36;;;;;;;5.78;2.67;;;26.00;82.80;;;;;;5014776;28;20030;-75
2021/07/13 06:18:02;;;;;;;2.05;1.88;;;26.00;82.70;;;;;;4996981;28;20037;-75
2021/07/13 06:20:28;;;;;;;1.98;1.88;;;26.00;83.20;;;;;;5014796;28;20024;-75
2021/07/13 06:22:55;;;;;;;4.50;2.05;;;26.00;82.90;;;;;;5014134;28;20100;-75
2021/07/13 06:25:21;;;;;;;4.30;2.00;;;26.00;81.50;;;;;;4995356;28;20064;-75
2021/07/13 06:27:49;;;;;;;2.30;2.20;;;26.10;82.00;;;;;;5004557;28;20552;-74
2021/07/13 06:30:15;;;;;;;2.50;2.30;;;26.10;81.10;;;;;;5008505;28;20052;-74
2021/07/13 06:32:41;;;;;;;2.58;2.00;;;26.20;82.00;;;;;;5012117;28;20079;-75
2021/07/13 06:35:07;;;;;;;3.58;1.80;;;26.30;81.40;;;;;;5012274;28;20474;-75
2021/07/13 06:37:33;;;;;;;1.95;1.75;;;26.30;81.10;;;;;;5013035;28;20385;-74
2021/07/13 06:39:58;;;;;;;2.25;2.05;;;26.30;80.90;;;;;;4994471;28;20029;-75
2021/07/13 06:42:30;;;;;;;1.70;1.60;;;26.40;80.60;;;;;;5012290;28;20033;-74
2021/07/13 06:44:56;;;;;;;3.00;1.73;;;26.40;79.50;;;;;;5012609;28;20373;-75
2021/07/13 06:47:22;;;;;;;6.78;1.92;;;26.40;82.10;;;;;;5012902;28;20026;-74
2021/07/13 06:49:48;;;;;;;2.60;1.88;;;26.40;82.10;;;;;;5011809;28;20026;-75
2021/07/13 06:52:14;;;;;;;1.77;1.67;;;26.50;81.10;;;;;;5013262;28;20052;-76
2021/07/13 06:54:40;;;;;;;3.15;2.13;;;26.50;81.00;;;;;;4995474;28;20087;-76
2021/07/13 06:57:07;;;;;;;4.00;1.90;;;26.50;80.80;;;;;;4995297;28;20091;-76
2021/07/13 06:59:34;;;;;;;1.90;1.80;;;26.50;81.50;;;;;;5008936;28;20389;-76
2021/07/13 07:02:09;;;;;;;2.05;1.95;;;26.60;79.70;;;;;;5013630;28;20025;-76
2021/07/13 07:04:35;;;;;;;2.15;2.05;;;26.60;80.20;;;;;;5013199;28;20018;-76
2021/07/13 07:07:01;;;;;;;2.15;2.00;;;26.60;80.10;;;;;;4996018;28;20033;-76
2021/07/13 07:09:30;;;;;;;2.67;2.38;;;26.60;79.80;;;;;;5013441;28;20033;-76
2021/07/13 07:11:56;;;;;;;2.85;1.92;;;26.60;79.50;;;;;;5013332;28;20030;-76
2021/07/13 07:14:22;;;;;;;3.58;2.33;;;26.60;80.20;;;;;;5013195;28;20104;-76
2021/07/13 07:16:47;;;;;;;5.03;2.50;;;26.60;80.20;;;;;;5013170;28;20517;-76
2021/07/13 07:19:13;;;;;;;3.08;2.83;;;26.60;80.40;;;;;;5008753;28;20034;-76
2021/07/13 07:21:39;;;;;;;3.85;2.97;;;26.70;81.20;;;;;;5012860;28;20104;-76
2021/07/13 07:24:04;;;;;;;3.17;2.53;;;26.70;81.20;;;;;;5012695;28;20096;-76
2021/07/13 07:26:30;;;;;;;2.97;2.67;;;26.80;80.90;;;;;;5015424;28;20060;-75
2021/07/13 07:28:56;;;;;;;4.00;3.40;;;26.80;80.50;;;;;;4990864;28;20026;-75
2021/07/13 07:31:22;;;;;;;5.15;2.72;;;26.90;80.40;;;;;;5009862;28;20026;-75
2021/07/13 07:33:48;;;;;;;3.72;1.65;;;26.90;79.70;;;;;;5008954;28;20026;-75
2021/07/13 07:36:15;;;;;;;2.70;2.50;;;26.90;78.00;;;;;;5009288;28;20417;-76
2021/07/13 07:38:41;;;;;;;3.55;2.60;;;26.90;78.30;;;;;;5009372;28;20574;-75
2021/07/13 07:41:07;;;;;;;2.50;2.30;;;26.90;79.00;;;;;;5008826;28;20076;-75
2021/07/13 07:43:33;;;;;;;2.75;2.55;;;26.90;78.50;;;;;;4991880;28;20033;-75
2021/07/13 07:45:59;;;;;;;5.55;2.28;;;27.00;77.20;;;;;;5008501;28;20018;-75
2021/07/13 07:48:25;;;;;;;2.25;2.10;;;27.00;76.80;;;;;;5011570;28;20104;-75
2021/07/13 07:50:50;;;;;;;2.10;1.90;;;27.10;77.70;;;;;;4993749;28;20054;-75
2021/07/13 07:53:16;;;;;;;3.78;2.45;;;27.10;76.10;;;;;;5011928;28;20107;-76
2021/07/13 07:55:43;;;;;;;2.50;1.98;;;27.10;76.00;;;;;;5011690;28;20038;-75
2021/07/13 07:58:12;;;;;;;3.05;2.00;;;27.10;75.60;;;;;;5010138;28;20505;-74
2021/07/13 08:00:40;;;;;;;4.15;2.03;;;27.10;77.20;;;;;;4993626;28;20052;-75
2021/07/13 08:03:06;;;;;;;2.30;2.10;;;27.20;77.20;;;;;;5011264;28;20026;-75
2021/07/13 08:05:32;;;;;;;2.35;1.90;;;27.20;77.80;;;;;;4992582;28;20025;-74
2021/07/13 08:07:58;;;;;;;2.22;1.98;;;27.20;76.80;;;;;;5011126;28;20108;-74
2021/07/13 08:10:24;;;;;;;2.13;2.03;;;27.30;77.00;;;;;;5011149;28;20105;-74
2021/07/13 08:12:50;;;;;;;2.78;1.95;;;27.30;76.90;;;;;;5010454;28;20032;-74
2021/07/13 08:15:16;;;;;;;3.47;2.38;;;27.30;77.10;;;;;;5010535;28;20113;-75
2021/07/13 08:17:43;;;;;;;7.82;1.70;;;27.40;77.10;;;;;;5011169;28;20473;-75
2021/07/13 08:20:10;;;;;;;2.22;2.03;;;27.30;76.90;;;;;;4989414;28;20038;-75
2021/07/13 08:22:37;;;;;;;1.90;1.80;;;27.30;76.90;;;;;;5009617;28;20014;-75
2021/07/13 08:25:04;;;;;;;1.80;1.65;;;27.30;76.40;;;;;;5007749;28;20081;-74
2021/07/13 08:27:30;;;;;;;2.35;1.63;;;27.30;75.70;;;;;;5007332;28;20029;-74
2021/07/13 08:29:56;;;;;;;2.13;1.85;;;27.30;76.30;;;;;;5004968;28;20022;-75
2021/07/13 08:32:22;;;;;;;1.77;1.67;;;27.30;76.30;;;;;;5008417;28;20025;-74
2021/07/13 08:34:48;;;;;;;4.50;1.75;;;27.30;76.40;;;;;;5011444;28;20070;-74
2021/07/13 08:37:14;;;;;;;2.17;1.33;;;27.30;77.50;;;;;;5011799;28;20025;-74
2021/07/13 08:39:40;;;;;;;3.22;1.70;;;27.30;77.60;;;;;;5011350;28;20112;-74
2021/07/13 08:42:09;;;;;;;2.38;2.25;;;27.30;76.70;;;;;;4994215;28;20132;-74
2021/07/13 08:44:35;;;;;;;2.53;1.80;;;27.40;78.00;;;;;;5010906;28;20041;-74
2021/07/13 08:47:01;;;;;;;2.40;2.20;;;27.50;79.00;;;;;;5011246;28;20030;-74
2021/07/13 08:49:27;;;;;;;7.45;2.42;;;27.50;77.40;;;;;;5011670;28;20026;-74
2021/07/13 08:51:52;;;;;;;5.95;1.75;;;27.60;76.80;;;;;;5010524;28;20136;-74
2021/07/13 08:54:23;;;;;;;2.30;1.65;;;27.50;76.70;;;;;;4993148;28;20069;-74
2021/07/13 08:56:48;;;;;;;2.80;2.30;;;27.60;78.20;;;;;;5011754;28;20064;-74
2021/07/13 08:59:14;;;;;;;2.33;2.13;;;27.70;79.80;;;;;;5008782;28;20057;-74
2021/07/13 09:01:40;;;;;;;2.45;2.28;;;27.60;79.70;;;;;;5010901;28;20030;-74
2021/07/13 09:04:08;;;;;;;6.45;2.47;;;27.70;79.40;;;;;;5011605;28;20660;-74
2021/07/13 09:06:56;;;;;;;2.17;2.00;;;27.70;80.70;;;;;;5009800;28;20029;-74
2021/07/13 09:09:47;;;;;;;2.70;2.60;;;27.70;81.20;;;;;;5011295;28;20026;-74
2021/07/13 09:12:21;;;;;;;4.18;2.45;;;27.80;81.00;;;;;;5011325;28;20072;-74
2021/07/13 09:15:04;;;;;;;3.03;2.83;;;27.90;81.20;;;;;;5010346;28;20050;-74
2021/07/13 09:17:59;;;;;;;2.58;2.38;;;28.00;82.30;;;;;;5007554;28;20024;-74
2021/07/13 09:20:27;;;;;;;2.40;2.30;;;28.00;82.40;;;;;;4998088;28;20136;-74
2021/07/13 09:22:58;;;;;;;2.88;2.67;;;28.10;83.20;;;;;;4993935;28;20493;-75
2021/07/13 09:25:24;;;;;;;3.03;2.93;;;28.10;82.40;;;;;;5011037;28;20501;-74
2021/07/13 09:28:10;;;;;;;7.03;2.78;;;28.10;83.60;;;;;;5013235;28;20272;-74
2021/07/13 09:30:38;;;;;;;5.60;2.47;;;28.00;81.40;;;;;;4993623;28;20030;-75
2021/07/13 09:33:22;;;;;;;2.90;2.70;;;28.00;81.90;;;;;;5010818;28;20034;-75
2021/07/13 09:35:58;;;;;;;2.70;2.30;;;28.00;81.60;;;;;;5010591;28;20025;-74
2021/07/13 09:38:24;;;;;;;4.68;2.50;;;28.00;81.10;;;;;;5003745;28;20108;-74
2021/07/13 09:40:58;;;;;;;2.63;2.42;;;28.10;82.10;;;;;;5010394;28;20085;-74
2021/07/13 09:43:24;;;;;;;3.05;2.75;;;28.00;82.10;;;;;;5007427;28;20033;-74
2021/07/13 09:45:49;;;;;;;2.92;2.72;;;28.10;80.20;;;;;;5005696;28;20390;-74
2021/07/13 09:48:15;;;;;;;2.78;2.63;;;28.20;82.70;;;;;;5012287;28;20056;-74
2021/07/13 09:50:44;;;;;;;4.70;2.50;;;28.30;81.60;;;;;;5011828;28;20125;-74
2021/07/13 09:53:15;;;;;;;3.58;3.17;;;28.20;81.10;;;;;;5013191;28;20022;-74
2021/07/13 09:55:41;;;;;;;2.40;2.20;;;28.20;81.70;;;;;;5011776;28;20475;-74
2021/07/13 09:58:20;;;;;;;3.08;2.88;;;28.20;83.40;;;;;;5011452;28;20026;-74
2021/07/13 10:00:49;;;;;;;3.33;2.95;;;28.20;81.80;;;;;;5011278;28;20104;-75
2021/07/13 10:03:17;;;;;;;3.90;2.83;;;28.10;83.30;;;;;;5011927;28;20057;-74
2021/07/13 10:05:44;;;;;;;4.13;3.15;;;28.10;82.70;;;;;;5007555;28;20030;-74
2021/07/13 10:08:14;;;;;;;4.97;2.80;;;28.10;82.50;;;;;;5011849;28;20018;-74
2021/07/13 10:10:45;;;;;;;3.33;2.92;;;28.10;81.70;;;;;;5011899;28;20018;-73
2021/07/13 10:13:12;;;;;;;3.40;3.15;;;28.00;81.50;;;;;;5013026;28;20033;-74
2021/07/13 10:15:38;;;;;;;3.38;2.78;;;27.90;83.20;;;;;;5012923;28;20037;-74
2021/07/13 10:18:05;;;;;;;3.78;3.47;;;27.90;83.70;;;;;;5011983;28;20018;-74
2021/07/13 10:20:32;;;;;;;3.13;3.00;;;27.80;83.80;;;;;;5012310;28;20041;-74
2021/07/13 10:23:01;;;;;;;5.53;3.35;;;27.70;84.40;;;;;;5012732;28;20561;-74
2021/07/13 10:25:34;;;;;;;4.50;3.45;;;27.60;84.10;;;;;;5012051;28;20083;-74
2021/07/13 10:28:00;;;;;;;3.03;2.63;;;27.60;84.90;;;;;;4994395;28;20037;-74
2021/07/13 10:30:26;;;;;;;4.75;3.63;;;27.50;85.50;;;;;;5012235;28;20026;-74
2021/07/13 10:32:51;;;;;;;3.70;3.40;;;27.50;86.30;;;;;;5012205;28;20024;-74
2021/07/13 10:35:25;;;;;;;3.42;3.08;;;27.40;86.90;;;;;;4994979;28;20084;-74
2021/07/13 10:38:07;;;;;;;4.13;3.83;;;27.30;86.80;;;;;;5012748;28;20584;-74
2021/07/13 10:40:39;;;;;;;3.78;3.47;;;27.30;87.60;;;;;;5005837;28;20083;-74
2021/07/13 10:43:22;;;;;;;5.72;3.67;;;27.30;88.10;;;;;;5012628;28;20083;-74
2021/07/13 10:46:10;;;;;;;4.43;3.45;;;27.40;88.90;;;;;;5007532;28;20022;-74
2021/07/13 10:48:38;;;;;;;5.05;4.07;;;27.30;88.80;;;;;;5010840;28;20061;-74
2021/07/13 10:51:06;;;;;;;7.00;4.15;;;27.40;89.50;;;;;;5012279;28;20050;-74
2021/07/13 10:53:32;;;;;;;5.45;3.85;;;27.40;89.90;;;;;;5012341;28;20045;-74
2021/07/13 10:56:08;;;;;;;4.45;4.05;;;27.40;90.30;;;;;;5008089;28;20026;-75
2021/07/13 10:58:39;;;;;;;4.18;3.85;;;27.40;90.40;;;;;;5002996;28;20088;-74
2021/07/13 11:01:06;;;;;;;3.60;3.40;;;27.50;90.80;;;;;;5009662;28;20105;-73
2021/07/13 11:03:32;;;;;;;3.95;3.67;;;27.60;90.40;;;;;;4990989;28;20038;-74
2021/07/13 11:06:07;;;;;;;4.22;3.75;;;27.60;90.30;;;;;;5008184;28;20029;-73
2021/07/13 11:08:39;;;;;;;3.67;3.38;;;27.60;89.90;;;;;;5008272;28;20034;-73
2021/07/13 11:11:09;;;;;;;;;;;27.60;90.60;;;;;;5009709;28;20453;-74
2021/07/13 11:13:35;;;;;;;3.67;3.33;;;27.60;90.90;;;;;;5007884;28;20114;-73
2021/07/13 11:16:02;;;;;;;4.45;3.80;;;27.70;91.00;;;;;;4986972;28;20041;-74
2021/07/13 11:18:29;;;;;;;4.32;3.35;;;27.70;90.50;;;;;;5011816;28;20022;-74
2021/07/13 11:20:55;;;;;;;4.75;3.97;;;27.60;90.20;;;;;;5012816;28;20021;-74
2021/07/13 11:23:27;;;;;;;3.65;3.45;;;27.80;91.00;;;;;;5008424;28;20018;-74
2021/07/13 11:26:06;;;;;;;3.72;3.42;;;27.70;91.30;;;;;;5007803;28;20412;-74
2021/07/13 11:28:33;;;;;;;4.22;3.92;;;27.70;91.70;;;;;;5005572;28;20048;-74
2021/07/13 11:30:59;;;;;;;6.25;3.50;;;27.70;91.40;;;;;;5007412;28;20084;-74
2021/07/13 11:33:27;;;;;;;5.30;3.88;;;27.70;91.90;;;;;;5009130;28;20014;-74
2021/07/13 11:35:57;;;;;;;4.13;3.83;;;27.60;92.10;;;;;;5007453;28;20018;-74
2021/07/13 11:38:28;;;;;;;3.80;3.50;;;27.50;92.40;;;;;;5000489;28;20028;-74
2021/07/13 11:41:14;;;;;;;4.90;4.40;;;27.60;92.30;;;;;;4990499;28;20032;-74
2021/07/13 11:43:41;;;;;;;3.95;3.67;;;27.60;92.90;;;;;;5002037;28;20045;-74
2021/07/13 11:46:13;;;;;;;4.32;4.03;;;27.60;93.70;;;;;;5007716;28;20030;-74
2021/07/13 11:48:40;;;;;;;5.35;4.43;;;27.60;93.50;;;;;;5007666;28;20465;-74
2021/07/13 11:51:08;;;;;;;6.63;4.43;;;27.60;93.80;;;;;;5008002;28;20513;-74
2021/07/13 11:53:34;;;;;;;4.93;3.75;;;27.50;94.30;;;;;;5005245;28;20049;-75
2021/07/13 11:56:02;;;;;;;5.00;3.60;;;27.50;94.20;;;;;;5008190;28;20045;-74
2021/07/13 11:58:29;;;;;;;6.65;4.20;;;27.50;95.20;;;;;;5007529;28;20049;-74
2021/07/13 12:01:18;;;;;;;4.65;4.18;;;27.40;95.60;;;;;;4990112;28;20054;-74
2021/07/13 12:03:44;;;;;;;4.03;3.50;;;27.40;95.30;;;;;;5007205;28;20041;-74
2021/07/13 12:06:15;;;;;;;4.53;3.35;;;27.30;94.90;;;;;;5007191;28;20061;-74
2021/07/13 12:08:41;;;;;;;4.82;3.70;;;27.30;94.50;;;;;;5006642;28;20127;-74
2021/07/13 12:11:08;;;;;;;5.90;4.10;;;27.30;94.80;;;;;;4990087;28;20722;-73
2021/07/13 12:13:37;;;;;;;8.30;4.32;;;27.20;94.50;;;;;;5007259;28;20690;-73
2021/07/13 12:16:24;;;;;;;8.32;4.35;;;27.20;95.30;;;;;;4988043;28;20080;-74
2021/07/13 12:18:52;;;;;;;4.65;3.85;;;27.20;95.50;;;;;;4989968;28;20034;-74
2021/07/13 12:24:47;;;;;;;3.90;3.60;;;27.20;95.60;;;;;;5010285;28;20024;-74
2021/07/13 12:27:15;;;;;;;4.85;3.45;;;27.20;95.80;;;;;;5009877;28;20018;-73
2021/07/13 12:29:45;;;;;;;4.30;3.75;;;27.20;96.00;;;;;;5010128;28;20030;-74
2021/07/13 12:32:25;;;;;;;5.90;4.13;;;27.10;96.40;;;;;;5009911;28;20046;-74
2021/07/13 12:34:52;;;;;;;10.10;4.13;;;27.00;96.80;;;;;;4991824;28;20638;-74
2021/07/13 12:37:23;;;;;;;4.25;3.95;;;27.10;96.70;;;;;;5008982;28;20058;-74
2021/07/13 12:39:59;;;;;;;3.70;3.40;;;27.20;97.50;;;;;;4991022;28;20034;-74
2021/07/13 12:42:30;;;;;;;8.75;3.83;;;27.20;96.70;;;;;;5009170;28;20036;-74
2021/07/13 12:45:06;;;;;;;4.00;3.60;;;27.20;97.20;;;;;;5009753;28;20018;-74
2021/07/13 12:47:33;;;;;;;7.78;3.13;;;27.20;97.10;;;;;;5009829;28;20033;-74
2021/07/13 12:50:19;;;;;;;3.08;2.30;;;26.90;95.20;;;;;;5008603;28;20088;-74
2021/07/13 12:52:53;;;;;;;1.42;0.90;;;26.50;94.80;;;;;;5009352;28;20034;-74
2021/07/13 12:55:39;;;;;;;1.65;1.10;;;25.40;94.10;;;;;;5008857;28;20095;-74
2021/07/13 12:58:08;;;;;;;2.08;1.75;;;25.00;95.60;;;;;;4981400;28;20440;-74
2021/07/13 13:00:35;;;;;;;8.52;2.47;;;25.20;96.40;;;;;;4991457;28;20654;-74
2021/07/13 13:03:10;;;;;;;2.53;2.33;;;25.30;96.30;;;;;;5008893;28;20100;-74
2021/07/13 13:05:38;;;;;;;4.38;1.92;;;25.40;96.00;;;;;;5008303;28;20098;-75
2021/07/13 13:08:10;;;;;;;3.65;2.00;;;25.70;96.30;;;;;;5008277;28;20046;-75